sensor_id;sensor_type;location;lat;lon;timestamp;temperature;humidity
10133;DHT22;5106;50.926;7.080;2023-11-18T00:02:16;4.60;96.50
10133;DHT22;5106;50.926;7.080;2023-11-18T00:04:42;4.60;96.50
10133;DHT22;5106;50.926;7.080;2023-11-18T00:07:07;4.60;96.50
10133;DHT22;5106;50.926;7.080;2023-11-18T00:09:33;4.60;96.50
10133;DHT22;5106;50.926;7.080;2023-11-18T00:11:58;4.70;96.50
10133;DHT22;5106;50.926;7.080;2023-11-18T00:14:24;4.70;96.50
10133;DHT22;5106;50.926;7.080;2023-11-18T00:16:49;4.70;96.50
10133;DHT22;5106;50.926;7.080;2023-11-18T00:19:15;4.70;96.50
10133;DHT22;5106;50.926;7.080;2023-11-18T00:21:41;4.70;96.50
10133;DHT22;5106;50.926;7.080;2023-11-18T00:24:08;4.70;96.50
10133;DHT22;5106;50.926;7.080;2023-11-18T00:26:33;4.80;96.50
10133;DHT22;5106;50.926;7.080;2023-11-18T00:28:59;4.80;96.50
10133;DHT22;5106;50.926;7.080;2023-11-18T00:31:26;4.70;96.50
10133;DHT22;5106;50.926;7.080;2023-11-18T00:33:52;4.80;96.50
10133;DHT22;5106;50.926;7.080;2023-11-18T00:36:18;4.80;96.50
10133;DHT22;5106;50.926;7.080;2023-11-18T00:38:46;4.80;96.50
10133;DHT22;5106;50.926;7.080;2023-11-18T00:41:12;4.80;96.50
10133;DHT22;5106;50.926;7.080;2023-11-18T00:43:38;4.80;96.50
10133;DHT22;5106;50.926;7.080;2023-11-18T00:46:04;4.80;96.50
10133;DHT22;5106;50.926;7.080;2023-11-18T00:48:30;4.90;96.50
10133;DHT22;5106;50.926;7.080;2023-11-18T00:50:56;4.90;96.50
10133;DHT22;5106;50.926;7.080;2023-11-18T00:53:22;4.90;96.50
10133;DHT22;5106;50.926;7.080;2023-11-18T00:55:59;4.90;96.50
10133;DHT22;5106;50.926;7.080;2023-11-18T00:58:26;4.90;96.50
10133;DHT22;5106;50.926;7.080;2023-11-18T01:00:52;4.90;96.50
10133;DHT22;5106;50.926;7.080;2023-11-18T01:03:17;4.90;96.50
10133;DHT22;5106;50.926;7.080;2023-11-18T01:05:43;4.90;96.50
10133;DHT22;5106;50.926;7.080;2023-11-18T01:08:09;4.90;96.50
10133;DHT22;5106;50.926;7.080;2023-11-18T01:10:35;4.90;96.50
10133;DHT22;5106;50.926;7.080;2023-11-18T01:13:01;4.90;96.50
10133;DHT22;5106;50.926;7.080;2023-11-18T01:15:27;4.90;96.50
10133;DHT22;5106;50.926;7.080;2023-11-18T01:17:52;4.90;96.50
10133;DHT22;5106;50.926;7.080;2023-11-18T01:20:18;4.90;96.50
10133;DHT22;5106;50.926;7.080;2023-11-18T01:22:47;4.90;96.50
10133;DHT22;5106;50.926;7.080;2023-11-18T01:25:15;4.90;96.50
10133;DHT22;5106;50.926;7.080;2023-11-18T01:27:43;5.00;96.50
10133;DHT22;5106;50.926;7.080;2023-11-18T01:30:12;5.00;96.50
10133;DHT22;5106;50.926;7.080;2023-11-18T01:32:38;5.00;96.50
10133;DHT22;5106;50.926;7.080;2023-11-18T01:35:11;4.90;96.50
10133;DHT22;5106;50.926;7.080;2023-11-18T01:37:38;4.90;96.50
10133;DHT22;5106;50.926;7.080;2023-11-18T01:40:04;4.90;96.50
10133;DHT22;5106;50.926;7.080;2023-11-18T01:42:30;4.90;96.50
10133;DHT22;5106;50.926;7.080;2023-11-18T01:44:56;4.90;96.50
10133;DHT22;5106;50.926;7.080;2023-11-18T01:47:23;4.90;96.50
10133;DHT22;5106;50.926;7.080;2023-11-18T01:49:49;4.90;96.50
10133;DHT22;5106;50.926;7.080;2023-11-18T01:52:15;5.00;96.50
10133;DHT22;5106;50.926;7.080;2023-11-18T01:54:41;5.00;96.50
10133;DHT22;5106;50.926;7.080;2023-11-18T01:57:11;5.00;96.50
10133;DHT22;5106;50.926;7.080;2023-11-18T01:59:37;5.00;96.50
10133;DHT22;5106;50.926;7.080;2023-11-18T02:02:05;5.00;96.50
10133;DHT22;5106;50.926;7.080;2023-11-18T02:04:31;5.00;96.50
10133;DHT22;5106;50.926;7.080;2023-11-18T02:06:57;5.00;96.50
10133;DHT22;5106;50.926;7.080;2023-11-18T02:09:23;5.00;96.50
10133;DHT22;5106;50.926;7.080;2023-11-18T02:14:41;5.00;96.50
10133;DHT22;5106;50.926;7.080;2023-11-18T02:17:09;4.90;96.50
10133;DHT22;5106;50.926;7.080;2023-11-18T02:19:39;4.90;96.50
10133;DHT22;5106;50.926;7.080;2023-11-18T02:22:06;5.00;96.50
10133;DHT22;5106;50.926;7.080;2023-11-18T02:24:33;4.90;96.50
10133;DHT22;5106;50.926;7.080;2023-11-18T02:27:03;5.00;96.50
10133;DHT22;5106;50.926;7.080;2023-11-18T02:29:34;5.00;96.50
10133;DHT22;5106;50.926;7.080;2023-11-18T02:32:22;5.00;96.50
10133;DHT22;5106;50.926;7.080;2023-11-18T02:34:56;5.00;96.50
10133;DHT22;5106;50.926;7.080;2023-11-18T02:37:25;5.00;96.50
10133;DHT22;5106;50.926;7.080;2023-11-18T02:39:53;5.00;96.50
10133;DHT22;5106;50.926;7.080;2023-11-18T02:42:23;5.00;96.50
10133;DHT22;5106;50.926;7.080;2023-11-18T02:44:51;5.00;96.50
10133;DHT22;5106;50.926;7.080;2023-11-18T02:47:25;5.00;96.50
10133;DHT22;5106;50.926;7.080;2023-11-18T02:49:54;5.00;96.50
10133;DHT22;5106;50.926;7.080;2023-11-18T02:52:21;5.00;96.50
10133;DHT22;5106;50.926;7.080;2023-11-18T02:54:48;5.00;96.50
10133;DHT22;5106;50.926;7.080;2023-11-18T02:57:13;5.00;96.50
10133;DHT22;5106;50.926;7.080;2023-11-18T02:59:39;5.00;96.50
10133;DHT22;5106;50.926;7.080;2023-11-18T03:02:04;5.00;96.50
10133;DHT22;5106;50.926;7.080;2023-11-18T03:04:31;5.00;96.50
10133;DHT22;5106;50.926;7.080;2023-11-18T03:06:57;5.00;96.50
10133;DHT22;5106;50.926;7.080;2023-11-18T03:09:22;5.00;96.50
10133;DHT22;5106;50.926;7.080;2023-11-18T03:11:53;4.90;96.50
10133;DHT22;5106;50.926;7.080;2023-11-18T03:14:20;5.00;96.50
10133;DHT22;5106;50.926;7.080;2023-11-18T03:16:45;4.90;96.50
10133;DHT22;5106;50.926;7.080;2023-11-18T03:19:11;4.90;96.50
10133;DHT22;5106;50.926;7.080;2023-11-18T03:21:39;4.90;96.50
10133;DHT22;5106;50.926;7.080;2023-11-18T03:24:05;4.90;96.50
10133;DHT22;5106;50.926;7.080;2023-11-18T03:26:31;4.90;96.50
10133;DHT22;5106;50.926;7.080;2023-11-18T03:29:12;4.90;96.50
10133;DHT22;5106;50.926;7.080;2023-11-18T03:31:47;4.90;96.50
10133;DHT22;5106;50.926;7.080;2023-11-18T03:34:17;4.90;96.50
10133;DHT22;5106;50.926;7.080;2023-11-18T03:36:46;5.00;96.50
10133;DHT22;5106;50.926;7.080;2023-11-18T03:39:14;5.00;96.50
10133;DHT22;5106;50.926;7.080;2023-11-18T03:41:41;5.00;96.50
10133;DHT22;5106;50.926;7.080;2023-11-18T03:44:10;5.00;96.50
10133;DHT22;5106;50.926;7.080;2023-11-18T03:46:36;5.00;96.50
10133;DHT22;5106;50.926;7.080;2023-11-18T03:49:02;5.00;96.50
10133;DHT22;5106;50.926;7.080;2023-11-18T03:51:28;5.00;96.50
10133;DHT22;5106;50.926;7.080;2023-11-18T03:53:54;5.00;96.50
10133;DHT22;5106;50.926;7.080;2023-11-18T03:56:19;5.00;96.50
10133;DHT22;5106;50.926;7.080;2023-11-18T03:58:45;4.90;96.50
10133;DHT22;5106;50.926;7.080;2023-11-18T04:01:24;4.90;96.50
10133;DHT22;5106;50.926;7.080;2023-11-18T04:03:52;4.90;96.50
10133;DHT22;5106;50.926;7.080;2023-11-18T04:06:17;4.80;96.50
10133;DHT22;5106;50.926;7.080;2023-11-18T04:08:46;4.80;96.50
10133;DHT22;5106;50.926;7.080;2023-11-18T04:11:13;4.80;96.50
10133;DHT22;5106;50.926;7.080;2023-11-18T04:13:43;4.80;96.50
10133;DHT22;5106;50.926;7.080;2023-11-18T04:16:13;4.90;96.50
10133;DHT22;5106;50.926;7.080;2023-11-18T04:18:39;4.90;96.50
10133;DHT22;5106;50.926;7.080;2023-11-18T04:21:07;4.80;96.50
10133;DHT22;5106;50.926;7.080;2023-11-18T04:23:37;4.80;96.50
10133;DHT22;5106;50.926;7.080;2023-11-18T04:26:03;4.80;96.50
10133;DHT22;5106;50.926;7.080;2023-11-18T04:28:29;4.80;96.50
10133;DHT22;5106;50.926;7.080;2023-11-18T04:30:55;4.80;96.50
10133;DHT22;5106;50.926;7.080;2023-11-18T04:33:21;4.80;96.50
10133;DHT22;5106;50.926;7.080;2023-11-18T04:35:47;4.80;96.50
10133;DHT22;5106;50.926;7.080;2023-11-18T04:38:12;4.80;96.50
10133;DHT22;5106;50.926;7.080;2023-11-18T04:40:38;4.90;96.50
10133;DHT22;5106;50.926;7.080;2023-11-18T04:43:07;4.90;96.50
10133;DHT22;5106;50.926;7.080;2023-11-18T04:45:33;4.90;96.50
10133;DHT22;5106;50.926;7.080;2023-11-18T04:47:59;4.90;96.50
10133;DHT22;5106;50.926;7.080;2023-11-18T04:50:25;4.90;96.50
10133;DHT22;5106;50.926;7.080;2023-11-18T04:52:50;4.90;96.50
10133;DHT22;5106;50.926;7.080;2023-11-18T04:55:16;4.90;96.50
10133;DHT22;5106;50.926;7.080;2023-11-18T04:57:42;4.90;96.50
10133;DHT22;5106;50.926;7.080;2023-11-18T05:00:08;4.90;96.50
10133;DHT22;5106;50.926;7.080;2023-11-18T05:02:39;4.90;96.50
10133;DHT22;5106;50.926;7.080;2023-11-18T05:05:05;4.90;96.50
10133;DHT22;5106;50.926;7.080;2023-11-18T05:07:32;4.90;96.50
10133;DHT22;5106;50.926;7.080;2023-11-18T05:09:58;4.90;96.50
10133;DHT22;5106;50.926;7.080;2023-11-18T05:12:23;4.80;96.50
10133;DHT22;5106;50.926;7.080;2023-11-18T05:14:49;4.80;96.50
10133;DHT22;5106;50.926;7.080;2023-11-18T05:17:15;4.80;96.50
10133;DHT22;5106;50.926;7.080;2023-11-18T05:19:41;4.80;96.50
10133;DHT22;5106;50.926;7.080;2023-11-18T05:22:08;4.80;96.50
10133;DHT22;5106;50.926;7.080;2023-11-18T05:24:33;4.80;96.50
10133;DHT22;5106;50.926;7.080;2023-11-18T05:26:59;4.80;96.50
10133;DHT22;5106;50.926;7.080;2023-11-18T05:29:27;4.80;96.50
10133;DHT22;5106;50.926;7.080;2023-11-18T05:31:53;4.80;96.50
10133;DHT22;5106;50.926;7.080;2023-11-18T05:34:20;4.80;96.50
10133;DHT22;5106;50.926;7.080;2023-11-18T05:36:47;4.80;96.50
10133;DHT22;5106;50.926;7.080;2023-11-18T05:39:14;4.80;96.50
10133;DHT22;5106;50.926;7.080;2023-11-18T05:41:40;4.80;96.50
10133;DHT22;5106;50.926;7.080;2023-11-18T05:44:11;4.80;96.50
10133;DHT22;5106;50.926;7.080;2023-11-18T05:46:43;4.80;96.50
10133;DHT22;5106;50.926;7.080;2023-11-18T05:49:11;4.80;96.50
10133;DHT22;5106;50.926;7.080;2023-11-18T05:51:39;4.80;96.50
10133;DHT22;5106;50.926;7.080;2023-11-18T05:54:06;4.80;96.50
10133;DHT22;5106;50.926;7.080;2023-11-18T05:56:32;4.80;96.50
10133;DHT22;5106;50.926;7.080;2023-11-18T05:58:58;4.80;96.50
10133;DHT22;5106;50.926;7.080;2023-11-18T06:01:24;4.90;96.50
10133;DHT22;5106;50.926;7.080;2023-11-18T06:03:53;4.80;96.50
10133;DHT22;5106;50.926;7.080;2023-11-18T06:06:19;4.90;96.50
10133;DHT22;5106;50.926;7.080;2023-11-18T06:08:46;4.90;96.50
10133;DHT22;5106;50.926;7.080;2023-11-18T06:11:14;4.90;96.50
10133;DHT22;5106;50.926;7.080;2023-11-18T06:13:43;4.90;96.50
10133;DHT22;5106;50.926;7.080;2023-11-18T06:16:12;4.90;96.50
10133;DHT22;5106;50.926;7.080;2023-11-18T06:18:43;4.90;96.50
10133;DHT22;5106;50.926;7.080;2023-11-18T06:21:22;4.90;96.50
10133;DHT22;5106;50.926;7.080;2023-11-18T06:23:55;4.90;96.50
10133;DHT22;5106;50.926;7.080;2023-11-18T06:26:21;4.90;96.50
10133;DHT22;5106;50.926;7.080;2023-11-18T06:28:48;4.90;96.50
10133;DHT22;5106;50.926;7.080;2023-11-18T06:31:17;5.00;96.50
10133;DHT22;5106;50.926;7.080;2023-11-18T06:33:44;5.00;96.50
10133;DHT22;5106;50.926;7.080;2023-11-18T06:38:40;5.00;96.50
10133;DHT22;5106;50.926;7.080;2023-11-18T06:41:07;5.00;96.50
10133;DHT22;5106;50.926;7.080;2023-11-18T06:43:37;5.00;96.50
10133;DHT22;5106;50.926;7.080;2023-11-18T06:46:24;5.00;96.50
10133;DHT22;5106;50.926;7.080;2023-11-18T06:48:51;5.00;96.50
10133;DHT22;5106;50.926;7.080;2023-11-18T06:51:24;5.00;96.50
10133;DHT22;5106;50.926;7.080;2023-11-18T06:53:51;5.00;96.50
10133;DHT22;5106;50.926;7.080;2023-11-18T06:56:17;5.00;96.50
10133;DHT22;5106;50.926;7.080;2023-11-18T06:58:43;5.00;96.50
10133;DHT22;5106;50.926;7.080;2023-11-18T07:01:11;5.00;96.50
10133;DHT22;5106;50.926;7.080;2023-11-18T07:03:39;5.00;96.50
10133;DHT22;5106;50.926;7.080;2023-11-18T07:06:06;5.00;96.50
10133;DHT22;5106;50.926;7.080;2023-11-18T07:08:32;5.00;96.50
10133;DHT22;5106;50.926;7.080;2023-11-18T07:11:00;5.00;96.50
10133;DHT22;5106;50.926;7.080;2023-11-18T07:13:27;5.00;96.50
10133;DHT22;5106;50.926;7.080;2023-11-18T07:15:53;5.00;96.50
10133;DHT22;5106;50.926;7.080;2023-11-18T07:18:19;5.00;96.50
10133;DHT22;5106;50.926;7.080;2023-11-18T07:20:48;5.10;96.50
10133;DHT22;5106;50.926;7.080;2023-11-18T07:23:14;5.10;96.50
10133;DHT22;5106;50.926;7.080;2023-11-18T07:25:39;5.10;96.50
10133;DHT22;5106;50.926;7.080;2023-11-18T07:28:05;5.10;96.50
10133;DHT22;5106;50.926;7.080;2023-11-18T07:30:30;5.10;96.50
10133;DHT22;5106;50.926;7.080;2023-11-18T07:32:56;5.10;96.50
10133;DHT22;5106;50.926;7.080;2023-11-18T07:35:25;5.10;96.50
10133;DHT22;5106;50.926;7.080;2023-11-18T07:37:52;5.20;96.50
10133;DHT22;5106;50.926;7.080;2023-11-18T07:40:18;5.20;96.50
10133;DHT22;5106;50.926;7.080;2023-11-18T07:42:54;5.20;96.50
10133;DHT22;5106;50.926;7.080;2023-11-18T07:45:21;5.20;96.50
10133;DHT22;5106;50.926;7.080;2023-11-18T07:47:49;5.30;96.50
10133;DHT22;5106;50.926;7.080;2023-11-18T07:50:17;5.30;96.50
10133;DHT22;5106;50.926;7.080;2023-11-18T07:52:42;5.40;96.50
10133;DHT22;5106;50.926;7.080;2023-11-18T07:55:08;5.40;96.50
10133;DHT22;5106;50.926;7.080;2023-11-18T07:57:38;5.40;96.50
10133;DHT22;5106;50.926;7.080;2023-11-18T08:00:04;5.40;96.50
10133;DHT22;5106;50.926;7.080;2023-11-18T08:02:38;5.40;96.50
10133;DHT22;5106;50.926;7.080;2023-11-18T08:05:04;5.50;96.50
10133;DHT22;5106;50.926;7.080;2023-11-18T08:07:34;5.50;96.50
10133;DHT22;5106;50.926;7.080;2023-11-18T08:10:03;5.50;96.50
10133;DHT22;5106;50.926;7.080;2023-11-18T08:12:31;5.60;96.50
10133;DHT22;5106;50.926;7.080;2023-11-18T08:14:57;5.60;96.50
10133;DHT22;5106;50.926;7.080;2023-11-18T08:17:24;5.60;96.50
10133;DHT22;5106;50.926;7.080;2023-11-18T08:19:52;5.70;96.50
10133;DHT22;5106;50.926;7.080;2023-11-18T08:22:19;5.70;96.50
10133;DHT22;5106;50.926;7.080;2023-11-18T08:24:46;5.70;96.50
10133;DHT22;5106;50.926;7.080;2023-11-18T08:27:11;5.80;96.50
10133;DHT22;5106;50.926;7.080;2023-11-18T08:29:39;5.80;96.50
10133;DHT22;5106;50.926;7.080;2023-11-18T08:32:05;5.80;96.50
10133;DHT22;5106;50.926;7.080;2023-11-18T08:34:31;5.90;96.50
10133;DHT22;5106;50.926;7.080;2023-11-18T08:37:01;5.90;96.50
10133;DHT22;5106;50.926;7.080;2023-11-18T08:39:28;5.90;96.50
10133;DHT22;5106;50.926;7.080;2023-11-18T08:41:54;6.00;96.50
10133;DHT22;5106;50.926;7.080;2023-11-18T08:44:20;6.00;96.50
10133;DHT22;5106;50.926;7.080;2023-11-18T08:46:46;6.00;96.50
10133;DHT22;5106;50.926;7.080;2023-11-18T08:49:12;6.10;96.50
10133;DHT22;5106;50.926;7.080;2023-11-18T08:51:37;6.10;96.50
10133;DHT22;5106;50.926;7.080;2023-11-18T08:54:04;6.10;96.50
10133;DHT22;5106;50.926;7.080;2023-11-18T08:56:51;6.10;96.50
10133;DHT22;5106;50.926;7.080;2023-11-18T08:59:20;6.20;96.50
10133;DHT22;5106;50.926;7.080;2023-11-18T09:01:53;6.30;96.50
10133;DHT22;5106;50.926;7.080;2023-11-18T09:04:25;6.30;96.50
10133;DHT22;5106;50.926;7.080;2023-11-18T09:06:51;6.30;96.50
10133;DHT22;5106;50.926;7.080;2023-11-18T09:09:23;6.30;96.50
10133;DHT22;5106;50.926;7.080;2023-11-18T09:11:56;6.40;96.50
10133;DHT22;5106;50.926;7.080;2023-11-18T09:14:23;6.40;96.50
10133;DHT22;5106;50.926;7.080;2023-11-18T09:16:50;6.40;96.50
10133;DHT22;5106;50.926;7.080;2023-11-18T09:19:16;6.50;96.50
10133;DHT22;5106;50.926;7.080;2023-11-18T09:21:43;6.50;96.50
10133;DHT22;5106;50.926;7.080;2023-11-18T09:24:09;6.50;96.50
10133;DHT22;5106;50.926;7.080;2023-11-18T09:26:38;6.50;96.50
10133;DHT22;5106;50.926;7.080;2023-11-18T09:29:05;6.60;96.50
10133;DHT22;5106;50.926;7.080;2023-11-18T09:31:34;6.60;96.50
10133;DHT22;5106;50.926;7.080;2023-11-18T09:34:01;6.60;96.50
10133;DHT22;5106;50.926;7.080;2023-11-18T09:36:26;6.70;96.50
10133;DHT22;5106;50.926;7.080;2023-11-18T09:38:54;6.70;96.50
10133;DHT22;5106;50.926;7.080;2023-11-18T09:41:22;6.70;96.50
10133;DHT22;5106;50.926;7.080;2023-11-18T09:43:49;6.70;96.50
10133;DHT22;5106;50.926;7.080;2023-11-18T09:46:26;6.70;96.50
10133;DHT22;5106;50.926;7.080;2023-11-18T09:49:26;6.70;96.50
10133;DHT22;5106;50.926;7.080;2023-11-18T09:51:59;6.80;96.50
10133;DHT22;5106;50.926;7.080;2023-11-18T09:55:05;6.80;96.50
10133;DHT22;5106;50.926;7.080;2023-11-18T09:57:43;6.80;96.50
10133;DHT22;5106;50.926;7.080;2023-11-18T10:00:11;6.90;96.50
10133;DHT22;5106;50.926;7.080;2023-11-18T10:02:52;6.90;96.50
10133;DHT22;5106;50.926;7.080;2023-11-18T10:05:19;6.90;96.50
10133;DHT22;5106;50.926;7.080;2023-11-18T10:07:49;7.00;96.50
10133;DHT22;5106;50.926;7.080;2023-11-18T10:10:16;7.00;96.50
10133;DHT22;5106;50.926;7.080;2023-11-18T10:12:43;7.10;96.50
10133;DHT22;5106;50.926;7.080;2023-11-18T10:15:14;7.10;96.50
10133;DHT22;5106;50.926;7.080;2023-11-18T10:17:44;7.20;96.50
10133;DHT22;5106;50.926;7.080;2023-11-18T10:23:08;7.20;96.50
10133;DHT22;5106;50.926;7.080;2023-11-18T10:28:24;7.30;96.50
10133;DHT22;5106;50.926;7.080;2023-11-18T10:31:00;7.30;96.50
10133;DHT22;5106;50.926;7.080;2023-11-18T10:33:37;7.30;96.50
10133;DHT22;5106;50.926;7.080;2023-11-18T10:36:04;7.30;96.50
10133;DHT22;5106;50.926;7.080;2023-11-18T10:38:38;7.30;96.50
10133;DHT22;5106;50.926;7.080;2023-11-18T10:41:09;7.40;96.50
10133;DHT22;5106;50.926;7.080;2023-11-18T10:43:35;7.40;96.50
10133;DHT22;5106;50.926;7.080;2023-11-18T10:46:08;7.40;96.50
10133;DHT22;5106;50.926;7.080;2023-11-18T10:48:50;7.40;96.50
10133;DHT22;5106;50.926;7.080;2023-11-18T10:51:17;7.40;96.50
10133;DHT22;5106;50.926;7.080;2023-11-18T10:53:47;7.40;96.50
10133;DHT22;5106;50.926;7.080;2023-11-18T10:56:24;7.40;96.50
10133;DHT22;5106;50.926;7.080;2023-11-18T10:59:04;7.40;96.50
10133;DHT22;5106;50.926;7.080;2023-11-18T11:01:34;7.40;96.50
10133;DHT22;5106;50.926;7.080;2023-11-18T11:04:04;7.40;96.50
10133;DHT22;5106;50.926;7.080;2023-11-18T11:06:32;7.40;96.50
10133;DHT22;5106;50.926;7.080;2023-11-18T11:08:58;7.40;96.50
10133;DHT22;5106;50.926;7.080;2023-11-18T11:11:26;7.40;96.50
10133;DHT22;5106;50.926;7.080;2023-11-18T11:13:59;7.40;96.50
10133;DHT22;5106;50.926;7.080;2023-11-18T11:16:37;7.50;96.50
10133;DHT22;5106;50.926;7.080;2023-11-18T11:19:17;7.50;96.50
10133;DHT22;5106;50.926;7.080;2023-11-18T11:21:55;7.50;96.50
10133;DHT22;5106;50.926;7.080;2023-11-18T11:24:28;7.50;96.50
10133;DHT22;5106;50.926;7.080;2023-11-18T11:29:50;7.60;96.50
10133;DHT22;5106;50.926;7.080;2023-11-18T11:32:30;7.60;96.50
10133;DHT22;5106;50.926;7.080;2023-11-18T11:35:01;7.60;96.50
10133;DHT22;5106;50.926;7.080;2023-11-18T11:37:33;7.60;96.50
10133;DHT22;5106;50.926;7.080;2023-11-18T11:40:00;7.50;96.50
10133;DHT22;5106;50.926;7.080;2023-11-18T11:42:31;7.50;96.50
10133;DHT22;5106;50.926;7.080;2023-11-18T11:44:57;7.50;96.50
10133;DHT22;5106;50.926;7.080;2023-11-18T11:47:25;7.50;96.50
10133;DHT22;5106;50.926;7.080;2023-11-18T11:50:08;7.50;96.50
10133;DHT22;5106;50.926;7.080;2023-11-18T11:52:43;7.50;96.50
10133;DHT22;5106;50.926;7.080;2023-11-18T11:55:15;7.50;96.50
10133;DHT22;5106;50.926;7.080;2023-11-18T11:57:50;7.60;96.50
10133;DHT22;5106;50.926;7.080;2023-11-18T12:00:18;7.60;96.50
10133;DHT22;5106;50.926;7.080;2023-11-18T12:02:51;7.60;96.50
10133;DHT22;5106;50.926;7.080;2023-11-18T12:05:20;7.60;96.50
10133;DHT22;5106;50.926;7.080;2023-11-18T12:07:52;7.60;96.50
10133;DHT22;5106;50.926;7.080;2023-11-18T12:10:19;7.70;96.50
10133;DHT22;5106;50.926;7.080;2023-11-18T12:12:48;7.70;96.50
10133;DHT22;5106;50.926;7.080;2023-11-18T12:15:14;7.70;96.50
10133;DHT22;5106;50.926;7.080;2023-11-18T12:20:44;7.80;96.50
10133;DHT22;5106;50.926;7.080;2023-11-18T12:26:39;7.80;96.50
10133;DHT22;5106;50.926;7.080;2023-11-18T12:29:32;7.80;96.50
10133;DHT22;5106;50.926;7.080;2023-11-18T12:31:59;7.80;96.50
10133;DHT22;5106;50.926;7.080;2023-11-18T12:34:51;7.80;96.50
10133;DHT22;5106;50.926;7.080;2023-11-18T12:37:22;7.80;96.50
10133;DHT22;5106;50.926;7.080;2023-11-18T12:43:00;7.80;96.50
10133;DHT22;5106;50.926;7.080;2023-11-18T12:45:41;7.80;96.50
10133;DHT22;5106;50.926;7.080;2023-11-18T12:48:14;7.80;96.50
10133;DHT22;5106;50.926;7.080;2023-11-18T12:50:41;7.90;96.50
10133;DHT22;5106;50.926;7.080;2023-11-18T12:53:10;7.90;96.50
10133;DHT22;5106;50.926;7.080;2023-11-18T12:55:35;7.90;96.50
10133;DHT22;5106;50.926;7.080;2023-11-18T12:58:01;7.90;96.50
10133;DHT22;5106;50.926;7.080;2023-11-18T13:00:27;7.90;96.50
10133;DHT22;5106;50.926;7.080;2023-11-18T13:02:54;7.90;96.50
10133;DHT22;5106;50.926;7.080;2023-11-18T13:05:20;7.90;96.50
10133;DHT22;5106;50.926;7.080;2023-11-18T13:07:46;7.90;96.50
10133;DHT22;5106;50.926;7.080;2023-11-18T13:10:15;7.90;96.50
10133;DHT22;5106;50.926;7.080;2023-11-18T13:12:42;7.90;96.50
10133;DHT22;5106;50.926;7.080;2023-11-18T13:15:09;7.90;96.50
10133;DHT22;5106;50.926;7.080;2023-11-18T13:17:34;7.90;96.50
10133;DHT22;5106;50.926;7.080;2023-11-18T13:20:13;7.90;96.50
10133;DHT22;5106;50.926;7.080;2023-11-18T13:22:39;7.90;96.50
10133;DHT22;5106;50.926;7.080;2023-11-18T13:25:07;7.90;96.50
10133;DHT22;5106;50.926;7.080;2023-11-18T13:27:32;7.80;96.50
10133;DHT22;5106;50.926;7.080;2023-11-18T13:29:58;7.80;96.50
10133;DHT22;5106;50.926;7.080;2023-11-18T13:32:24;7.80;96.50
10133;DHT22;5106;50.926;7.080;2023-11-18T13:34:52;7.80;96.50
10133;DHT22;5106;50.926;7.080;2023-11-18T13:37:17;7.80;96.50
10133;DHT22;5106;50.926;7.080;2023-11-18T13:39:54;7.90;96.50
10133;DHT22;5106;50.926;7.080;2023-11-18T13:42:20;7.90;96.50
10133;DHT22;5106;50.926;7.080;2023-11-18T13:44:47;7.90;96.50
10133;DHT22;5106;50.926;7.080;2023-11-18T13:47:13;7.90;96.50
10133;DHT22;5106;50.926;7.080;2023-11-18T13:49:41;7.90;96.50
10133;DHT22;5106;50.926;7.080;2023-11-18T13:52:08;7.90;96.50
10133;DHT22;5106;50.926;7.080;2023-11-18T13:54:38;7.90;96.50
10133;DHT22;5106;50.926;7.080;2023-11-18T13:57:04;7.90;96.50
10133;DHT22;5106;50.926;7.080;2023-11-18T13:59:31;7.90;96.50
10133;DHT22;5106;50.926;7.080;2023-11-18T14:02:06;7.90;96.50
10133;DHT22;5106;50.926;7.080;2023-11-18T14:04:33;7.80;96.50
10133;DHT22;5106;50.926;7.080;2023-11-18T14:07:01;7.80;96.50
10133;DHT22;5106;50.926;7.080;2023-11-18T14:09:33;7.80;96.50
10133;DHT22;5106;50.926;7.080;2023-11-18T14:12:08;7.80;96.50
10133;DHT22;5106;50.926;7.080;2023-11-18T14:14:34;7.80;96.50
10133;DHT22;5106;50.926;7.080;2023-11-18T14:17:00;7.80;96.50
10133;DHT22;5106;50.926;7.080;2023-11-18T14:19:26;7.80;96.50
10133;DHT22;5106;50.926;7.080;2023-11-18T14:21:53;7.80;96.50
10133;DHT22;5106;50.926;7.080;2023-11-18T14:24:19;7.80;96.50
10133;DHT22;5106;50.926;7.080;2023-11-18T14:26:45;7.80;96.50
10133;DHT22;5106;50.926;7.080;2023-11-18T14:29:11;7.70;96.50
10133;DHT22;5106;50.926;7.080;2023-11-18T14:31:39;7.80;96.50
10133;DHT22;5106;50.926;7.080;2023-11-18T14:34:05;7.80;96.50
10133;DHT22;5106;50.926;7.080;2023-11-18T14:36:31;7.80;96.50
10133;DHT22;5106;50.926;7.080;2023-11-18T14:38:57;7.80;96.50
10133;DHT22;5106;50.926;7.080;2023-11-18T14:41:25;7.80;96.50
10133;DHT22;5106;50.926;7.080;2023-11-18T14:43:54;7.80;96.50
10133;DHT22;5106;50.926;7.080;2023-11-18T14:46:20;7.80;96.50
10133;DHT22;5106;50.926;7.080;2023-11-18T14:48:46;7.80;96.50
10133;DHT22;5106;50.926;7.080;2023-11-18T14:51:12;7.80;96.50
10133;DHT22;5106;50.926;7.080;2023-11-18T14:53:37;7.80;96.50
10133;DHT22;5106;50.926;7.080;2023-11-18T14:56:04;7.80;96.50
10133;DHT22;5106;50.926;7.080;2023-11-18T14:58:32;7.70;96.50
10133;DHT22;5106;50.926;7.080;2023-11-18T15:01:01;7.70;96.50
10133;DHT22;5106;50.926;7.080;2023-11-18T15:03:27;7.70;96.50
10133;DHT22;5106;50.926;7.080;2023-11-18T15:05:53;7.70;96.50
10133;DHT22;5106;50.926;7.080;2023-11-18T15:08:18;7.70;96.50
10133;DHT22;5106;50.926;7.080;2023-11-18T15:10:44;7.70;96.50
10133;DHT22;5106;50.926;7.080;2023-11-18T15:13:10;7.70;96.50
10133;DHT22;5106;50.926;7.080;2023-11-18T15:15:43;7.70;96.50
10133;DHT22;5106;50.926;7.080;2023-11-18T15:18:08;7.70;96.50
10133;DHT22;5106;50.926;7.080;2023-11-18T15:20:39;7.70;96.50
10133;DHT22;5106;50.926;7.080;2023-11-18T15:23:11;7.70;96.50
10133;DHT22;5106;50.926;7.080;2023-11-18T15:25:38;7.70;96.50
10133;DHT22;5106;50.926;7.080;2023-11-18T15:28:05;7.60;96.50
10133;DHT22;5106;50.926;7.080;2023-11-18T15:30:38;7.60;96.50
10133;DHT22;5106;50.926;7.080;2023-11-18T15:33:07;7.60;96.50
10133;DHT22;5106;50.926;7.080;2023-11-18T15:35:34;7.60;96.50
10133;DHT22;5106;50.926;7.080;2023-11-18T15:38:03;7.60;96.50
10133;DHT22;5106;50.926;7.080;2023-11-18T15:40:31;7.60;96.50
10133;DHT22;5106;50.926;7.080;2023-11-18T15:42:56;7.60;96.50
10133;DHT22;5106;50.926;7.080;2023-11-18T15:45:23;7.60;96.50
10133;DHT22;5106;50.926;7.080;2023-11-18T15:47:54;7.60;96.50
10133;DHT22;5106;50.926;7.080;2023-11-18T15:50:20;7.60;96.50
10133;DHT22;5106;50.926;7.080;2023-11-18T15:52:47;7.60;96.50
10133;DHT22;5106;50.926;7.080;2023-11-18T15:55:19;7.60;96.50
10133;DHT22;5106;50.926;7.080;2023-11-18T15:57:47;7.60;96.50
10133;DHT22;5106;50.926;7.080;2023-11-18T16:00:13;7.60;96.50
10133;DHT22;5106;50.926;7.080;2023-11-18T16:02:47;7.60;96.50
10133;DHT22;5106;50.926;7.080;2023-11-18T16:05:19;7.60;96.50
10133;DHT22;5106;50.926;7.080;2023-11-18T16:07:50;7.50;96.50
10133;DHT22;5106;50.926;7.080;2023-11-18T16:10:23;7.50;96.50
10133;DHT22;5106;50.926;7.080;2023-11-18T16:12:56;7.50;96.50
10133;DHT22;5106;50.926;7.080;2023-11-18T16:15:27;7.50;96.50
10133;DHT22;5106;50.926;7.080;2023-11-18T16:17:54;7.50;96.50
10133;DHT22;5106;50.926;7.080;2023-11-18T16:20:24;7.50;96.50
10133;DHT22;5106;50.926;7.080;2023-11-18T16:22:50;7.60;96.50
10133;DHT22;5106;50.926;7.080;2023-11-18T16:25:24;7.60;96.50
10133;DHT22;5106;50.926;7.080;2023-11-18T16:27:53;7.50;96.50
10133;DHT22;5106;50.926;7.080;2023-11-18T16:30:20;7.60;96.50
10133;DHT22;5106;50.926;7.080;2023-11-18T16:32:53;7.50;96.50
10133;DHT22;5106;50.926;7.080;2023-11-18T16:35:22;7.50;96.50